createdAt,value
2023-05-05T00:00:02.511Z,13928.5381
2023-05-05T00:01:03.332Z,13933.0000
2023-05-05T00:02:04.914Z,13941.0000
2023-05-05T00:03:06.764Z,13955.0771
2023-05-05T00:04:08.218Z,13945.6152
2023-05-05T00:05:09.886Z,13931.5381
2023-05-05T00:06:11.593Z,13932.2305
2023-05-05T00:07:13.147Z,13932.0000
2023-05-05T00:08:14.794Z,13936.5381
2023-05-05T00:09:16.424Z,13937.3848
2023-05-05T00:10:18.090Z,13936.5381
2023-05-05T00:11:19.760Z,13936.2305
2023-05-05T00:12:21.331Z,13930.0771
2023-05-05T00:13:23.048Z,13934.3848
2023-05-05T00:14:24.659Z,13946.1543
2023-05-05T00:15:26.307Z,13954.0771
2023-05-05T00:16:28.081Z,13953.3076
2023-05-05T00:17:29.610Z,13933.5381
2023-05-05T00:18:31.276Z,13936.9229
2023-05-05T00:19:32.893Z,13937.3076
2023-05-05T00:20:34.583Z,13938.9229
2023-05-05T00:21:36.244Z,13946.6152
2023-05-05T00:22:37.862Z,13947.2305
2023-05-05T00:23:39.472Z,13937.6152
2023-05-05T00:24:41.217Z,13939.6924
2023-05-05T00:25:42.754Z,13945.2305
2023-05-05T00:26:44.490Z,13953.6152
2023-05-05T00:27:46.152Z,13955.2305
2023-05-05T00:28:47.770Z,13949.3076
2023-05-05T00:29:49.331Z,13938.1543
2023-05-05T00:30:51.070Z,13947.9229
2023-05-05T00:31:52.665Z,13941.6924
2023-05-05T00:32:54.467Z,13946.3848
2023-05-05T00:33:55.908Z,13946.0771
2023-05-05T00:34:57.673Z,13947.3848
2023-05-05T00:35:59.281Z,13943.7695
2023-05-05T00:37:00.929Z,13943.2305
2023-05-05T00:38:02.482Z,13947.7695
2023-05-05T00:39:04.207Z,13944.3076
2023-05-05T00:40:05.897Z,13952.6152
2023-05-05T00:41:07.485Z,13958.4619
2023-05-05T00:42:10.493Z,13951.6152
2023-05-05T00:43:10.692Z,13948.0000
2023-05-05T00:44:12.394Z,13949.2305
2023-05-05T00:45:15.004Z,13948.0000
2023-05-05T00:46:15.704Z,13957.5381
2023-05-05T00:47:17.389Z,13958.8457
2023-05-05T00:48:19.078Z,13956.0771
2023-05-05T00:49:20.666Z,13949.0000
2023-05-05T00:50:22.255Z,13954.6924
2023-05-05T00:51:23.991Z,13954.3848
2023-05-05T00:52:25.601Z,13960.2305
2023-05-05T00:53:27.226Z,13956.4619
2023-05-05T00:54:28.824Z,13951.3848
2023-05-05T00:55:30.504Z,13952.2305
2023-05-05T00:56:32.121Z,13957.5381
2023-05-05T00:57:33.830Z,13970.0000
2023-05-05T00:58:35.355Z,13965.0000
2023-05-05T00:59:37.082Z,13965.0000
2023-05-05T01:00:38.679Z,13953.0000
2023-05-05T01:01:41.491Z,13952.4619
2023-05-05T01:02:42.458Z,13957.0000
2023-05-05T01:03:43.845Z,13962.1543
2023-05-05T01:04:46.139Z,13976.0000
2023-05-05T01:05:46.883Z,13977.5381
2023-05-05T01:06:48.494Z,13972.0000
2023-05-05T01:07:50.130Z,13951.5381
2023-05-05T01:08:51.794Z,13953.1543
2023-05-05T01:10:04.201Z,13963.3076
2023-05-05T01:10:55.089Z,13964.1543
2023-05-05T01:11:56.780Z,13968.0000
2023-05-05T01:12:58.436Z,13982.6152
2023-05-05T01:13:59.967Z,13976.5381
2023-05-05T01:15:01.639Z,13965.0771
2023-05-05T01:16:03.337Z,13959.6152
2023-05-05T01:17:04.951Z,13956.6152
2023-05-05T01:18:06.764Z,13957.9229
2023-05-05T01:19:08.200Z,13963.6924
2023-05-05T01:20:10.013Z,13972.4619
2023-05-05T01:21:11.495Z,13981.6924
2023-05-05T01:22:13.129Z,13984.3076
2023-05-05T01:23:14.786Z,13972.3076
2023-05-05T01:24:16.386Z,13959.4619
2023-05-05T01:25:18.073Z,13957.0771
2023-05-05T01:26:19.691Z,13964.6152
2023-05-05T01:27:21.367Z,13968.8457
2023-05-05T01:28:23.021Z,13976.8457
2023-05-05T01:29:24.643Z,13981.6924
2023-05-05T01:30:26.257Z,13983.1543
2023-05-05T01:31:28.032Z,13969.7695
2023-05-05T01:32:29.635Z,13962.4619
2023-05-05T01:33:31.556Z,13958.2305
2023-05-05T01:34:32.892Z,13967.4619
2023-05-05T01:35:34.515Z,13966.9229
2023-05-05T01:36:36.150Z,13980.0771
2023-05-05T01:37:37.868Z,13987.6152
2023-05-05T01:38:39.498Z,13979.6152
2023-05-05T01:39:41.107Z,13961.7695
2023-05-05T01:40:42.766Z,13958.0000
2023-05-05T01:41:44.439Z,13956.9229
2023-05-05T01:42:46.063Z,13968.0771
2023-05-05T01:43:47.739Z,13977.5381
2023-05-05T01:44:49.241Z,13981.8457
2023-05-05T01:45:50.980Z,13992.2305
2023-05-05T01:46:52.560Z,13985.3076
2023-05-05T01:47:54.273Z,13966.6152
2023-05-05T01:48:55.836Z,13958.4619
2023-05-05T01:49:57.605Z,13957.0000
2023-05-05T01:50:59.158Z,13966.3848
2023-05-05T01:52:00.870Z,13968.9229
2023-05-05T01:53:02.473Z,13979.7695
2023-05-05T01:54:04.958Z,13981.4619
2023-05-05T01:55:05.800Z,13975.6152
2023-05-05T01:56:07.365Z,13965.4619
2023-05-05T01:57:09.010Z,13959.4619
2023-05-05T01:58:10.781Z,13970.9229
2023-05-05T01:59:12.334Z,13971.4619
2023-05-05T02:00:13.997Z,13973.9229
2023-05-05T02:01:15.604Z,13978.2305
2023-05-05T02:02:17.266Z,13975.0000
2023-05-05T02:03:18.969Z,13977.6152
2023-05-05T02:04:20.665Z,13965.0000
2023-05-05T02:05:22.198Z,13958.0771
2023-05-05T02:06:23.820Z,13966.3848
2023-05-05T02:07:25.429Z,13969.8457
2023-05-05T02:08:27.185Z,13989.1543
2023-05-05T02:09:28.754Z,13985.3848
2023-05-05T02:10:30.415Z,13987.0771
2023-05-05T02:11:32.004Z,13979.6924
2023-05-05T02:12:33.719Z,13966.5381
2023-05-05T02:13:35.368Z,13962.0000
2023-05-05T02:14:36.997Z,13969.0771
2023-05-05T02:15:38.678Z,13968.3076
2023-05-05T02:16:40.284Z,13983.1543
2023-05-05T02:17:41.939Z,13989.1543
2023-05-05T02:18:43.565Z,13994.4619
2023-05-05T02:19:45.250Z,13979.8457
2023-05-05T02:20:46.860Z,13976.6924
2023-05-05T02:21:48.561Z,13964.6924
2023-05-05T02:22:50.131Z,13962.4619
2023-05-05T02:23:51.922Z,13973.4619
2023-05-05T02:24:53.467Z,13982.6924
2023-05-05T02:25:55.018Z,13986.8457
2023-05-05T02:26:56.816Z,13984.8457
2023-05-05T02:27:58.319Z,13984.6924
2023-05-05T02:29:00.031Z,13974.2305
2023-05-05T02:30:01.654Z,13967.5381
2023-05-05T02:31:03.294Z,13966.0771
2023-05-05T02:32:04.986Z,13977.1543
2023-05-05T02:33:06.715Z,13985.2305
2023-05-05T02:34:08.226Z,13993.0771
2023-05-05T02:35:09.896Z,14001.8457
2023-05-05T02:36:11.536Z,13994.7695
2023-05-05T02:37:13.214Z,13979.3076
2023-05-05T02:38:14.783Z,13970.0771
2023-05-05T02:39:16.426Z,13975.3848
2023-05-05T02:40:18.082Z,13969.3076
2023-05-05T02:41:19.690Z,13979.0771
2023-05-05T02:42:21.923Z,13989.0771
2023-05-05T02:43:23.124Z,13991.5381
2023-05-05T02:44:24.626Z,13994.6924
2023-05-05T02:45:26.855Z,13987.3076
2023-05-05T02:46:27.963Z,13975.9229
2023-05-05T02:47:29.628Z,13974.6152
2023-05-05T02:48:31.148Z,13973.7695
2023-05-05T02:49:32.885Z,13984.0000
2023-05-05T02:50:34.498Z,13992.0771
2023-05-05T02:51:36.232Z,14003.8457
2023-05-05T02:52:37.824Z,14000.2305
2023-05-05T02:53:39.443Z,13994.3848
2023-05-05T02:54:41.436Z,13980.0000
2023-05-05T02:55:42.753Z,13984.6924
2023-05-05T02:56:44.359Z,13979.3076
2023-05-05T02:57:46.001Z,13983.1543
2023-05-05T02:58:47.620Z,13992.1543
2023-05-05T02:59:49.339Z,14002.4619
2023-05-05T03:00:50.953Z,14014.1543
2023-05-05T03:01:52.736Z,14007.4619
2023-05-05T03:02:54.339Z,14002.8457
2023-05-05T03:03:55.976Z,13982.5381
2023-05-05T03:04:57.556Z,13984.1543
2023-05-05T03:05:59.208Z,13987.4619
2023-05-05T03:07:00.767Z,13982.1543
2023-05-05T03:08:02.533Z,13993.1543
2023-05-05T03:09:04.171Z,13999.6924
2023-05-05T03:10:06.203Z,14012.3076
2023-05-05T03:11:07.386Z,14009.7695
2023-05-05T03:12:09.096Z,13998.5381
2023-05-05T03:13:10.858Z,13985.3076
2023-05-05T03:14:12.369Z,13987.7695
2023-05-05T03:15:14.071Z,13983.5381
2023-05-05T03:16:15.780Z,13985.0000
2023-05-05T03:17:17.310Z,13996.2305
2023-05-05T03:18:18.988Z,14000.1543
2023-05-05T03:19:20.617Z,14006.4619
2023-05-05T03:20:22.302Z,14010.5381
2023-05-05T03:21:23.963Z,13999.2305
2023-05-05T03:22:25.536Z,13994.1543
2023-05-05T03:23:27.175Z,13987.8457
2023-05-05T03:24:28.850Z,13987.0000
2023-05-05T03:25:30.557Z,13985.3076
2023-05-05T03:26:32.487Z,13990.6924
2023-05-05T03:27:33.796Z,14002.0000
2023-05-05T03:28:35.363Z,14007.5381
2023-05-05T03:29:37.096Z,14017.4619
2023-05-05T03:30:38.781Z,14006.7695
2023-05-05T03:31:41.102Z,13996.4619
2023-05-05T03:32:42.082Z,13989.0000
2023-05-05T03:33:43.649Z,13989.6152
2023-05-05T03:34:45.245Z,13990.2305
2023-05-05T03:35:46.976Z,13992.0000
2023-05-05T03:36:48.582Z,14007.7695
2023-05-05T03:37:50.971Z,14016.4619
2023-05-05T03:38:51.816Z,14014.5381
2023-05-05T03:39:53.605Z,13999.4619
2023-05-05T03:40:55.195Z,13987.5381
2023-05-05T03:41:56.853Z,13988.0000
2023-05-05T03:42:58.434Z,13982.6152
2023-05-05T03:44:00.185Z,13991.3076
2023-05-05T03:45:01.733Z,14001.6152
2023-05-05T03:46:03.469Z,14015.6152
2023-05-05T03:47:06.000Z,14001.6152
2023-05-05T03:48:06.752Z,13998.9229
2023-05-05T03:49:08.311Z,13993.7695
2023-05-05T03:50:10.170Z,13981.0000
2023-05-05T03:51:11.636Z,13979.6152
2023-05-05T03:52:15.093Z,13988.0000
2023-05-05T03:53:14.976Z,13990.6152
2023-05-05T03:54:16.552Z,14002.8457
2023-05-05T03:55:18.186Z,14002.4619
2023-05-05T03:56:19.873Z,14007.5381
2023-05-05T03:57:21.468Z,13994.6152
2023-05-05T03:58:24.011Z,13982.2305
2023-05-05T03:59:24.741Z,13977.4619
2023-05-05T04:00:26.464Z,13975.2305
2023-05-05T04:01:28.859Z,13987.7695
2023-05-05T04:02:29.855Z,13995.6152
2023-05-05T04:03:31.651Z,14003.3848
2023-05-05T04:04:33.154Z,14003.9229
2023-05-05T04:05:34.653Z,13984.6152
2023-05-05T04:06:36.293Z,13986.3076
2023-05-05T04:07:37.927Z,13974.0771
2023-05-05T04:08:40.068Z,13972.7695
2023-05-05T04:09:41.959Z,13981.1543
2023-05-05T04:10:42.907Z,13994.7695
2023-05-05T04:11:44.545Z,14003.0771
2023-05-05T04:12:46.356Z,13992.6924
2023-05-05T04:13:47.871Z,13982.1543
2023-05-05T04:14:49.537Z,13973.9229
2023-05-05T04:15:51.104Z,13967.7695
2023-05-05T04:16:52.716Z,13968.8457
2023-05-05T04:17:55.142Z,13986.1543
2023-05-05T04:18:56.061Z,13990.7695
2023-05-05T04:19:57.720Z,13992.9229
2023-05-05T04:20:59.306Z,13994.9229
2023-05-05T04:22:00.971Z,13982.8457
2023-05-05T04:23:02.643Z,13970.4619
2023-05-05T04:24:04.278Z,13970.7695
2023-05-05T04:25:05.964Z,13982.6924
2023-05-05T04:26:07.514Z,13993.3848
2023-05-05T04:27:09.192Z,13997.1543
2023-05-05T04:28:10.852Z,13998.3848
2023-05-05T04:29:12.523Z,13984.7695
2023-05-05T04:30:14.143Z,13979.3848
2023-05-05T04:31:15.753Z,13972.7695
2023-05-05T04:32:17.296Z,13976.7695
2023-05-05T04:33:19.018Z,13990.6152
2023-05-05T04:34:20.640Z,14000.7695
2023-05-05T04:35:22.300Z,13993.7695
2023-05-05T04:36:23.936Z,13998.2305
2023-05-05T04:37:25.520Z,13982.1543
2023-05-05T04:38:27.301Z,13976.0000
2023-05-05T04:39:29.535Z,13975.0771
2023-05-05T04:40:30.481Z,13985.3848
2023-05-05T04:41:32.049Z,13988.1543
2023-05-05T04:42:33.701Z,13989.0000
2023-05-05T04:43:35.400Z,13987.3848
2023-05-05T04:44:37.474Z,13974.0771
2023-05-05T04:45:38.705Z,13964.3848
2023-05-05T04:46:40.326Z,13965.0000
2023-05-05T04:47:42.045Z,13971.3848
2023-05-05T04:48:43.590Z,13975.2305
2023-05-05T04:49:45.476Z,13984.9229
2023-05-05T04:50:46.971Z,13970.9229
2023-05-05T04:51:48.547Z,13965.2305
2023-05-05T04:52:51.392Z,13961.7695
2023-05-05T04:53:53.091Z,13961.9229
2023-05-05T04:54:53.632Z,13964.5381
2023-05-05T04:55:55.286Z,13971.0771
2023-05-05T04:56:56.918Z,13980.2305
2023-05-05T04:57:58.584Z,13972.0771
2023-05-05T04:59:00.206Z,13961.7695
2023-05-05T05:00:01.893Z,13967.0000
2023-05-05T05:01:03.525Z,13960.8457
2023-05-05T05:02:05.246Z,13962.3076
2023-05-05T05:03:06.854Z,13968.6152
2023-05-05T05:04:08.422Z,13976.9229
2023-05-05T05:05:10.094Z,13981.8457
2023-05-05T05:06:11.723Z,13976.3076
2023-05-05T05:07:13.336Z,13963.0771
2023-05-05T05:08:15.087Z,13962.3848
2023-05-05T05:09:16.575Z,13957.7695
2023-05-05T05:10:18.342Z,13966.0771
2023-05-05T05:11:19.974Z,13977.8457
2023-05-05T05:12:21.563Z,13983.7695
2023-05-05T05:13:23.269Z,13973.0000
2023-05-05T05:14:24.898Z,13968.6152
2023-05-05T05:15:26.463Z,13968.0000
2023-05-05T05:16:28.351Z,13966.4619
2023-05-05T05:17:29.858Z,13959.7695
2023-05-05T05:18:31.521Z,13967.8457
2023-05-05T05:19:34.069Z,13979.3076
2023-05-05T05:20:35.092Z,13979.3076
2023-05-05T05:21:36.425Z,13966.3848
2023-05-05T05:22:38.009Z,13970.7695
2023-05-05T05:23:39.658Z,13960.6924
2023-05-05T05:24:41.363Z,13960.6152
2023-05-05T05:25:43.897Z,13958.8457
2023-05-05T05:26:44.690Z,13974.3076
2023-05-05T05:27:50.136Z,13979.7695
2023-05-05T05:28:47.856Z,13969.6924
2023-05-05T05:29:49.558Z,13962.0771
2023-05-05T05:30:51.228Z,13964.2305
2023-05-05T05:31:52.803Z,13961.5381
2023-05-05T05:32:54.544Z,13957.3076
2023-05-05T05:33:56.191Z,13968.4619
2023-05-05T05:34:57.678Z,13977.4619
2023-05-05T05:35:59.470Z,13973.6152
2023-05-05T05:37:01.076Z,13956.8457
2023-05-05T05:38:02.700Z,13960.3848
2023-05-05T05:39:04.256Z,13967.4619
2023-05-05T05:40:06.032Z,13957.6924
2023-05-05T05:41:07.535Z,13966.2305
2023-05-05T05:42:10.507Z,13974.7695
2023-05-05T05:43:10.923Z,13980.8457
2023-05-05T05:44:12.522Z,13969.2305
2023-05-05T05:45:14.094Z,13961.0000
2023-05-05T05:46:15.886Z,13960.2305
2023-05-05T05:47:17.500Z,13960.9229
2023-05-05T05:48:20.104Z,13967.6924
2023-05-05T05:49:20.598Z,13973.4619
2023-05-05T05:50:22.673Z,13965.0000
2023-05-05T05:51:24.267Z,13955.1543
2023-05-05T05:52:25.978Z,13956.7695
2023-05-05T05:53:28.665Z,13953.8457
2023-05-05T05:54:29.666Z,13956.3076
2023-05-05T05:55:30.492Z,13972.8457
2023-05-05T05:56:32.215Z,13963.9229
2023-05-05T05:57:34.167Z,13956.3848
2023-05-05T05:58:35.413Z,13947.1543
2023-05-05T05:59:37.121Z,13950.0000
2023-05-05T06:00:38.950Z,13943.7695
2023-05-05T06:01:40.445Z,13958.8457
2023-05-05T06:02:42.296Z,13962.0771
2023-05-05T06:03:43.712Z,13944.9229
2023-05-05T06:04:45.285Z,13943.2305
2023-05-05T06:05:46.886Z,13938.0771
2023-05-05T06:06:48.675Z,13929.1543
2023-05-05T06:07:50.229Z,13926.8457
2023-05-05T06:08:51.877Z,13926.0771
2023-05-05T06:09:53.503Z,13932.7695
2023-05-05T06:10:55.272Z,13933.6924
2023-05-05T06:11:56.831Z,13925.5381
2023-05-05T06:12:58.578Z,13916.0771
2023-05-05T06:14:00.071Z,13912.6152
2023-05-05T06:15:01.727Z,13909.8457
2023-05-05T06:16:03.395Z,13912.6924
2023-05-05T06:17:05.085Z,13906.3848
2023-05-05T06:18:06.702Z,13900.0000
2023-05-05T06:19:08.349Z,13896.9229
2023-05-05T06:20:10.058Z,13890.3848
2023-05-05T06:21:11.630Z,13887.7695
2023-05-05T06:22:13.348Z,13889.0000
2023-05-05T06:23:14.886Z,13886.2305
2023-05-05T06:24:16.474Z,13892.8457
2023-05-05T06:25:18.180Z,13889.9229
2023-05-05T06:26:19.818Z,13885.8457
2023-05-05T06:27:21.446Z,13877.5381
2023-05-05T06:28:23.612Z,13873.5381
2023-05-05T06:29:24.694Z,13876.3848
2023-05-05T06:30:26.413Z,13870.0771
2023-05-05T06:31:27.996Z,13866.0000
2023-05-05T06:32:30.164Z,13873.8457
2023-05-05T06:33:31.328Z,13894.7695
2023-05-05T06:34:32.970Z,13896.8457
2023-05-05T06:35:34.596Z,13884.8457
2023-05-05T06:36:36.306Z,13879.3848
2023-05-05T06:37:37.868Z,13875.9229
2023-05-05T06:38:39.571Z,13861.7695
2023-05-05T06:39:41.135Z,13852.8457
2023-05-05T06:40:42.841Z,13866.5381
2023-05-05T06:41:44.478Z,13896.9229
2023-05-05T06:42:46.160Z,13885.5381
2023-05-05T06:43:48.097Z,13877.5381
2023-05-05T06:44:49.469Z,13866.8457
2023-05-05T06:45:50.950Z,13859.9229
2023-05-05T06:46:52.731Z,13847.6924
2023-05-05T06:47:54.295Z,13851.2305
2023-05-05T06:48:56.118Z,13884.0000
2023-05-05T06:49:57.502Z,13888.3848
2023-05-05T06:50:59.201Z,13879.3076
2023-05-05T06:52:00.799Z,13858.5381
2023-05-05T06:53:02.481Z,13857.3076
2023-05-05T06:54:04.152Z,13855.8457
2023-05-05T06:55:05.742Z,13848.0000
2023-05-05T06:56:07.405Z,13885.9229
2023-05-05T06:57:09.054Z,13886.6152
2023-05-05T06:58:11.600Z,13874.9229
2023-05-05T06:59:12.308Z,13855.7695
2023-05-05T07:00:13.898Z,13850.0771
2023-05-05T07:01:15.720Z,13851.3076
2023-05-05T07:02:17.211Z,13852.0000
2023-05-05T07:03:18.914Z,13883.1543
2023-05-05T07:04:20.561Z,13875.7695
2023-05-05T07:05:22.244Z,13858.4619
2023-05-05T07:06:23.765Z,13850.0000
2023-05-05T07:07:25.451Z,13848.0000
2023-05-05T07:08:27.066Z,13850.4619
2023-05-05T07:09:28.743Z,13872.6924
2023-05-05T07:10:30.356Z,13871.0000
2023-05-05T07:11:31.956Z,13853.7695
2023-05-05T07:12:33.668Z,13837.4619
2023-05-05T07:13:35.249Z,13832.6924
2023-05-05T07:14:37.019Z,13851.8457
2023-05-05T07:15:38.684Z,13860.4619
2023-05-05T07:16:40.337Z,13842.4619
2023-05-05T07:17:41.879Z,13828.3076
2023-05-05T07:18:43.586Z,13817.0000
2023-05-05T07:19:45.248Z,13831.5381
2023-05-05T07:20:46.965Z,13848.4619
2023-05-05T07:21:48.437Z,13844.0000
2023-05-05T07:22:50.107Z,13830.8457
2023-05-05T07:23:52.091Z,13816.6152
2023-05-05T07:24:53.462Z,13826.6924
2023-05-05T07:25:54.998Z,13850.6924
2023-05-05T07:26:56.644Z,13846.6152
2023-05-05T07:27:58.272Z,13830.3076
2023-05-05T07:29:00.008Z,13815.8457
2023-05-05T07:30:02.073Z,13820.8457
2023-05-05T07:31:03.263Z,13844.4619
2023-05-05T07:32:04.921Z,13842.6924
2023-05-05T07:33:06.554Z,13822.3076
2023-05-05T07:34:08.519Z,13806.0000
2023-05-05T07:35:09.789Z,13808.4619
2023-05-05T07:36:11.519Z,13827.2305
2023-05-05T07:37:13.104Z,13829.5381
2023-05-05T07:38:15.602Z,13813.5381
2023-05-05T07:39:17.127Z,13814.6924
2023-05-05T07:40:18.095Z,13822.6152
2023-05-05T07:41:19.651Z,13830.8457
2023-05-05T07:42:21.422Z,13837.2305
2023-05-05T07:43:23.015Z,13826.7695
2023-05-05T07:44:24.658Z,13811.0771
2023-05-05T07:45:26.268Z,13821.3076
2023-05-05T07:46:28.016Z,13834.8457
2023-05-05T07:47:29.587Z,13820.4619
2023-05-05T07:48:31.193Z,13805.0771
2023-05-05T07:49:32.811Z,13805.4619
2023-05-05T07:50:34.505Z,13825.4619
2023-05-05T07:51:36.051Z,13836.5381
2023-05-05T07:52:45.313Z,13828.3848
2023-05-05T07:53:39.304Z,13809.4619
2023-05-05T07:54:40.960Z,13794.4619
2023-05-05T07:55:43.033Z,13815.9229
2023-05-05T07:56:44.569Z,13830.3848
2023-05-05T07:57:45.963Z,13830.6152
2023-05-05T07:58:48.488Z,13814.6152
2023-05-05T07:59:49.226Z,13802.7695
2023-05-05T08:00:50.999Z,13802.8457
2023-05-05T08:01:54.791Z,13815.1543
2023-05-05T08:02:54.322Z,13827.4619
2023-05-05T08:03:55.995Z,13820.4619
2023-05-05T08:04:57.596Z,13796.1543
2023-05-05T08:05:59.305Z,13805.0000
2023-05-05T08:07:00.877Z,13813.6924
2023-05-05T08:08:02.567Z,13821.0771
2023-05-05T08:09:04.159Z,13809.3076
2023-05-05T08:10:05.832Z,13793.6924
2023-05-05T08:11:07.479Z,13793.0771
2023-05-05T08:12:09.896Z,13813.4619
2023-05-05T08:13:10.632Z,13820.1543
2023-05-05T08:14:12.278Z,13812.6152
2023-05-05T08:15:13.924Z,13786.6924
2023-05-05T08:16:15.583Z,13787.3076
2023-05-05T08:17:18.144Z,13810.3848
2023-05-05T08:18:18.861Z,13816.3848
2023-05-05T08:19:28.600Z,13791.8457
2023-05-05T08:20:22.148Z,13782.8457
2023-05-05T08:21:23.793Z,13802.3076
2023-05-05T08:22:25.421Z,13813.6924
2023-05-05T08:23:27.048Z,13813.9229
2023-05-05T08:24:28.640Z,13785.0000
2023-05-05T08:25:30.283Z,13788.6924
2023-05-05T08:26:31.933Z,13801.6924
2023-05-05T08:27:33.625Z,13807.2305
2023-05-05T08:28:35.307Z,13798.3076
2023-05-05T08:29:36.827Z,13786.2305
2023-05-05T08:30:38.434Z,13798.2305
2023-05-05T08:31:40.320Z,13807.7695
2023-05-05T08:32:41.871Z,13810.0771
2023-05-05T08:33:43.450Z,13786.0000
2023-05-05T08:34:45.014Z,13773.8457
2023-05-05T08:35:46.706Z,13798.9229
2023-05-05T08:36:48.360Z,13807.0000
2023-05-05T08:37:49.964Z,13806.6924
2023-05-05T08:38:51.593Z,13782.2305
2023-05-05T08:39:53.202Z,13779.2305
2023-05-05T08:40:54.953Z,13795.8457
2023-05-05T08:41:56.590Z,13802.8457
2023-05-05T08:42:58.230Z,13799.1543
2023-05-05T08:43:59.779Z,13771.3076
2023-05-05T08:45:01.425Z,13783.6152
2023-05-05T08:46:03.163Z,13799.1543
2023-05-05T08:47:04.864Z,13807.6152
2023-05-05T08:48:06.460Z,13794.7695
2023-05-05T08:49:08.087Z,13774.7695
2023-05-05T08:50:09.681Z,13786.2305
2023-05-05T08:51:11.256Z,13794.1543
2023-05-05T08:52:13.024Z,13795.6924
2023-05-05T08:53:14.600Z,13787.0771
2023-05-05T08:54:16.222Z,13781.6152
2023-05-05T08:55:17.942Z,13794.6924
2023-05-05T08:56:19.467Z,13798.2305
2023-05-05T08:57:21.185Z,13797.6924
2023-05-05T08:58:23.015Z,13787.0000
2023-05-05T08:59:24.403Z,13792.0771
2023-05-05T09:00:26.095Z,13801.4619
2023-05-05T09:01:27.710Z,13794.3076
2023-05-05T09:02:29.474Z,13786.7695
2023-05-05T09:03:31.065Z,13795.7695
2023-05-05T09:04:32.656Z,13789.6924
2023-05-05T09:05:34.253Z,13779.6152
2023-05-05T09:06:35.924Z,13773.9229
2023-05-05T09:07:37.554Z,13783.2305
2023-05-05T09:08:39.233Z,13791.1543
2023-05-05T09:09:40.818Z,13788.0771
2023-05-05T09:10:42.495Z,13770.1543
2023-05-05T09:11:44.147Z,13768.7695
2023-05-05T09:12:45.818Z,13781.3076
2023-05-05T09:13:48.001Z,13787.2305
2023-05-05T09:14:49.109Z,13783.8457
2023-05-05T09:15:50.685Z,13767.3076
2023-05-05T09:16:52.265Z,13778.2305
2023-05-05T09:17:53.982Z,13787.1543
2023-05-05T09:18:55.673Z,13790.8457
2023-05-05T09:19:57.361Z,13783.0000
2023-05-05T09:20:59.573Z,13777.0771
2023-05-05T09:22:00.550Z,13785.3076
2023-05-05T09:23:02.204Z,13790.7695
2023-05-05T09:24:08.216Z,13783.5381
2023-05-05T09:25:05.682Z,13778.1543
2023-05-05T09:26:07.072Z,13785.9229
2023-05-05T09:27:08.785Z,13793.9229
2023-05-05T09:28:10.428Z,13782.3848
2023-05-05T09:29:12.079Z,13779.4619
2023-05-05T09:30:13.719Z,13791.4619
2023-05-05T09:31:15.445Z,13792.5381
2023-05-05T09:32:16.992Z,13784.3848
2023-05-05T09:33:18.623Z,13777.6152
2023-05-05T09:34:20.342Z,13788.3848
2023-05-05T09:35:22.039Z,13793.0771
2023-05-05T09:36:24.233Z,13777.3848
2023-05-05T09:37:25.216Z,13776.3848
2023-05-05T09:38:26.789Z,13787.8457
2023-05-05T09:39:28.548Z,13798.7695
2023-05-05T09:40:30.138Z,13791.9229
2023-05-05T09:41:31.731Z,13775.0000
2023-05-05T09:42:33.407Z,13785.6924
2023-05-05T09:43:35.096Z,13791.3076
2023-05-05T09:44:36.736Z,13798.1543
2023-05-05T09:45:38.722Z,13783.5381
2023-05-05T09:46:40.049Z,13777.9229
2023-05-05T09:47:41.612Z,13791.2305
2023-05-05T09:48:43.271Z,13795.3848
2023-05-05T09:49:45.688Z,13786.3076
2023-05-05T09:50:46.667Z,13771.3076
2023-05-05T09:51:49.010Z,13785.2305
2023-05-05T09:52:49.807Z,13799.8457
2023-05-05T09:53:51.537Z,13799.2305
2023-05-05T09:54:53.117Z,13774.6152
2023-05-05T09:55:54.835Z,13782.6152
2023-05-05T09:56:56.585Z,13797.6924
2023-05-05T09:57:58.084Z,13796.4619
2023-05-05T09:58:59.678Z,13785.9229
2023-05-05T10:00:01.366Z,13776.0000
2023-05-05T10:01:03.036Z,13787.4619
2023-05-05T10:02:04.709Z,13793.2305
2023-05-05T10:03:06.330Z,13789.3076
2023-05-05T10:04:07.881Z,13779.3848
2023-05-05T10:05:09.551Z,13790.2305
2023-05-05T10:06:11.241Z,13797.3848
2023-05-05T10:07:12.808Z,13791.0771
2023-05-05T10:08:14.454Z,13777.7695
2023-05-05T10:09:16.127Z,13786.7695
2023-05-05T10:10:17.786Z,13794.9229
2023-05-05T10:11:19.393Z,13793.5381
2023-05-05T10:12:20.974Z,13787.6924
2023-05-05T10:13:22.741Z,13782.0771
2023-05-05T10:14:24.260Z,13795.0000
2023-05-05T10:15:25.989Z,13797.1543
2023-05-05T10:16:29.077Z,13788.2305
2023-05-05T10:17:29.352Z,13772.8457
2023-05-05T10:18:30.883Z,13787.9229
2023-05-05T10:19:32.507Z,13796.9229
2023-05-05T10:20:34.260Z,13794.2305
2023-05-05T10:21:36.297Z,13776.3076
2023-05-05T10:22:37.497Z,13783.2305
2023-05-05T10:23:39.090Z,13795.4619
2023-05-05T10:24:40.696Z,13799.0000
2023-05-05T10:25:42.375Z,13785.8457
2023-05-05T10:26:44.089Z,13775.3076
2023-05-05T10:27:45.659Z,13789.8457
2023-05-05T10:28:47.251Z,13796.2305
2023-05-05T10:29:48.949Z,13789.4619
2023-05-05T10:30:50.604Z,13779.3076
2023-05-05T10:31:54.380Z,13789.6924
2023-05-05T10:33:04.034Z,13795.0771
2023-05-05T10:33:55.730Z,13789.6924
2023-05-05T10:34:57.163Z,13775.0771
2023-05-05T10:35:58.874Z,13787.0771
2023-05-05T10:37:00.376Z,13791.7695
2023-05-05T10:38:02.178Z,13791.2305
2023-05-05T10:39:03.612Z,13778.7695
2023-05-05T10:40:05.464Z,13780.9229
2023-05-05T10:41:06.958Z,13792.7695
2023-05-05T10:42:08.622Z,13796.9229
2023-05-05T10:43:10.263Z,13781.3076
2023-05-05T10:44:11.842Z,13782.1543
2023-05-05T10:45:13.484Z,13790.4619
2023-05-05T10:46:15.215Z,13791.0771
2023-05-05T10:47:16.818Z,13785.3848
2023-05-05T10:48:18.441Z,13781.2305
2023-05-05T10:49:20.068Z,13788.0000
2023-05-05T10:50:21.703Z,13798.1543
2023-05-05T10:51:38.640Z,13784.4619
2023-05-05T10:52:25.109Z,13774.6670
2023-05-05T10:53:26.642Z,13788.3848
2023-05-05T10:54:28.345Z,13799.2305
2023-05-05T10:55:29.912Z,13794.5381
2023-05-05T10:56:31.656Z,13778.3848
2023-05-05T10:57:33.704Z,13792.5381
2023-05-05T10:58:43.685Z,13802.7695
2023-05-05T10:59:36.528Z,13801.1543
2023-05-05T11:00:38.240Z,13783.2305
2023-05-05T11:01:39.863Z,13785.7695
2023-05-05T11:02:41.712Z,13800.5381
2023-05-05T11:03:43.040Z,13792.5381
2023-05-05T11:04:44.670Z,13782.1543
2023-05-05T11:05:46.354Z,13791.3848
2023-05-05T11:06:48.041Z,13794.7695
2023-05-05T11:07:50.194Z,13788.7695
2023-05-05T11:08:51.247Z,13782.3076
2023-05-05T11:09:52.927Z,13790.6924
2023-05-05T11:10:55.116Z,13793.3076
2023-05-05T11:11:56.315Z,13794.5381
2023-05-05T11:12:57.999Z,13784.3076
2023-05-05T11:13:59.544Z,13790.4619
2023-05-05T11:15:01.138Z,13801.6152
2023-05-05T11:16:02.749Z,13802.6924
2023-05-05T11:17:04.468Z,13791.3076
2023-05-05T11:18:07.845Z,13781.3076
2023-05-05T11:19:07.762Z,13791.3076
2023-05-05T11:20:09.650Z,13797.0771
2023-05-05T11:21:11.062Z,13803.3848
2023-05-05T11:22:13.245Z,13788.3076
2023-05-05T11:23:16.607Z,13785.5381